Terminal Aerodrome Forecast
Issued by NWS

Home | Current Version | Previous Version | Text Only | Print | Product List | Glossary On
Versions: 1 2 3 4 5 6 7 8 9 10 11 12 13 14 15 16 17 18 19 20 21 22 23 24 25 26 27 28 29 30 31 32 33 34 35 36 37 38 39 40 41 42 43
000
FTUS45 KGJT 311740
TAFASE
TAF
KASE 311740Z 3118/0118 35006KT P6SM VCTS SCT070CB BKN110
      TEMPO 3120/3124 VRB10G20KT -TSRA BKN050CB
     FM010200 20005KT P6SM VCSH SCT050 BKN090
     FM010700 21004KT P6SM SCT070 BKN100
     FM011300 VRB03KT P6SM BKN120=

USA.gov is the U.S. government's official web portal to all federal, state and local government web resources and services.